createdAt,value
2023-03-03T00:01:30.558Z,9.27
2023-03-03T00:04:00.313Z,8.73
2023-03-03T00:06:30.385Z,8.57
2023-03-03T00:08:58.265Z,8.13
2023-03-03T00:11:26.027Z,7.87
2023-03-03T00:13:55.401Z,8.50
2023-03-03T00:16:25.778Z,8.33
2023-03-03T00:18:54.660Z,8.03
2023-03-03T00:21:30.295Z,8.23
2023-03-03T00:24:17.005Z,9.17
2023-03-03T00:26:46.595Z,9.17
2023-03-03T00:29:31.850Z,9.80
2023-03-03T00:32:19.366Z,8.77
2023-03-03T00:45:54.355Z,8.50
2023-03-03T00:48:27.407Z,8.93
2023-03-03T00:50:56.080Z,8.20
2023-03-03T00:53:25.010Z,8.03
2023-03-03T00:55:54.107Z,7.83
2023-03-03T00:58:22.964Z,8.27
2023-03-03T01:00:51.355Z,8.40
2023-03-03T01:03:22.022Z,8.33
2023-03-03T01:05:50.366Z,8.27
2023-03-03T01:08:19.192Z,8.37
2023-03-03T01:10:51.045Z,8.77
2023-03-03T01:13:19.500Z,8.77
2023-03-03T01:15:47.583Z,8.87
2023-03-03T01:18:15.838Z,8.90
2023-03-03T01:20:45.006Z,8.47
2023-03-03T01:23:12.828Z,8.63
2023-03-03T01:25:40.679Z,8.93
2023-03-03T01:28:08.421Z,8.90
2023-03-03T01:30:36.441Z,8.30
2023-03-03T01:33:04.333Z,7.50
2023-03-03T01:35:32.176Z,9.17
2023-03-03T01:38:01.297Z,9.43
2023-03-03T01:40:31.080Z,9.20
2023-03-03T01:43:00.404Z,9.03
2023-03-03T01:45:30.123Z,8.43
2023-03-03T01:48:01.577Z,8.60
2023-03-03T01:50:37.383Z,8.40
2023-03-03T01:53:11.272Z,8.07
2023-03-03T01:55:41.310Z,8.10
2023-03-03T01:58:11.632Z,8.87
2023-03-03T02:00:40.873Z,8.90
2023-03-03T02:03:08.711Z,8.80
2023-03-03T02:05:37.054Z,8.67
2023-03-03T02:08:06.534Z,8.53
2023-03-03T02:10:34.524Z,9.30
2023-03-03T02:13:02.266Z,8.97
2023-03-03T02:15:32.691Z,8.83
2023-03-03T02:18:05.015Z,8.27
2023-03-03T02:20:44.599Z,8.90
2023-03-03T02:23:19.226Z,7.70
2023-03-03T02:25:56.881Z,7.80
2023-03-03T02:28:29.759Z,7.80
2023-03-03T02:30:58.712Z,8.47
2023-03-03T02:33:27.005Z,8.47
2023-03-03T02:35:55.406Z,8.73
2023-03-03T02:38:27.729Z,9.00
2023-03-03T02:41:02.295Z,8.27
2023-03-03T02:43:36.055Z,8.13
2023-03-03T02:46:03.801Z,7.70
2023-03-03T02:48:31.628Z,7.40
2023-03-03T02:50:59.465Z,7.33
2023-03-03T02:53:27.273Z,7.77
2023-03-03T02:55:55.002Z,7.70
2023-03-03T02:58:22.853Z,8.40
2023-03-03T03:00:51.935Z,7.93
2023-03-03T03:03:19.750Z,7.53
2023-03-03T03:05:47.536Z,7.03
2023-03-03T03:08:15.417Z,6.90
2023-03-03T03:10:43.389Z,7.13
2023-03-03T03:13:11.807Z,6.73
2023-03-03T03:15:39.570Z,6.60
2023-03-03T03:18:08.797Z,7.20
2023-03-03T03:20:37.842Z,7.13
2023-03-03T03:23:05.602Z,6.87
2023-03-03T03:25:33.397Z,7.03
2023-03-03T03:28:01.196Z,6.83
2023-03-03T03:30:29.017Z,7.07
2023-03-03T03:32:56.772Z,6.50
2023-03-03T03:35:25.912Z,7.10
2023-03-03T03:37:53.657Z,6.10
2023-03-03T03:40:21.429Z,6.20
2023-03-03T03:42:49.217Z,6.10
2023-03-03T03:45:17.114Z,5.70
2023-03-03T03:47:44.898Z,5.27
2023-03-03T03:50:12.974Z,5.70
2023-03-03T03:52:43.527Z,5.13
2023-03-03T03:55:11.745Z,5.13
2023-03-03T03:57:39.557Z,5.10
2023-03-03T04:00:09.110Z,5.13
2023-03-03T04:02:37.624Z,5.53
2023-03-03T04:05:06.143Z,5.27
2023-03-03T04:07:33.968Z,4.83
2023-03-03T04:10:03.134Z,5.10
2023-03-03T04:12:35.965Z,4.63
2023-03-03T04:15:03.733Z,4.80
2023-03-03T04:17:31.542Z,5.50
2023-03-03T04:19:59.323Z,5.27
2023-03-03T04:22:27.446Z,5.17
2023-03-03T04:24:55.195Z,4.80
2023-03-03T04:27:24.275Z,5.23
2023-03-03T04:29:51.982Z,4.80
2023-03-03T04:32:19.826Z,5.13
2023-03-03T04:34:53.109Z,4.70
2023-03-03T04:37:26.374Z,4.57
2023-03-03T04:39:54.066Z,5.17
2023-03-03T04:42:21.797Z,4.80
2023-03-03T04:44:50.887Z,4.83
2023-03-03T04:47:18.666Z,4.70
2023-03-03T04:49:46.441Z,4.27
2023-03-03T04:52:14.217Z,4.80
2023-03-03T04:54:41.938Z,4.70
2023-03-03T04:57:09.978Z,5.00
2023-03-03T04:59:37.811Z,4.70
2023-03-03T05:02:06.936Z,4.83
2023-03-03T05:04:35.232Z,4.30
2023-03-03T05:07:03.064Z,4.30
2023-03-03T05:09:30.832Z,4.77
2023-03-03T05:11:58.745Z,4.77
2023-03-03T05:14:26.453Z,4.90
2023-03-03T05:16:54.343Z,4.53
2023-03-03T05:19:24.182Z,4.80
2023-03-03T05:21:51.938Z,4.67
2023-03-03T05:24:20.246Z,5.00
2023-03-03T05:26:48.048Z,4.77
2023-03-03T05:29:15.855Z,4.63
2023-03-03T05:31:45.550Z,4.50
2023-03-03T05:34:13.550Z,5.10
2023-03-03T05:36:42.668Z,5.17
2023-03-03T05:39:10.384Z,4.87
2023-03-03T05:41:38.082Z,5.07
2023-03-03T05:44:05.901Z,5.60
2023-03-03T05:46:33.730Z,5.03
2023-03-03T05:49:01.492Z,5.17
2023-03-03T05:51:29.282Z,5.50
2023-03-03T05:53:58.504Z,5.30
2023-03-03T05:56:26.432Z,5.57
2023-03-03T05:58:54.236Z,4.90
2023-03-03T06:01:22.182Z,5.60
2023-03-03T06:03:49.978Z,5.20
2023-03-03T06:06:19.315Z,6.07
2023-03-03T06:08:47.285Z,5.87
2023-03-03T06:11:16.743Z,5.87
2023-03-03T06:13:44.802Z,5.30
2023-03-03T06:16:12.620Z,5.70
2023-03-03T06:18:40.480Z,5.60
2023-03-03T06:21:08.268Z,5.60
2023-03-03T06:23:35.984Z,5.10
2023-03-03T06:26:03.795Z,5.20
2023-03-03T06:28:32.933Z,4.93
2023-03-03T06:31:00.711Z,5.30
2023-03-03T06:33:28.545Z,5.90
2023-03-03T06:35:56.365Z,5.70
2023-03-03T06:38:24.231Z,5.90
2023-03-03T06:40:52.064Z,5.60
2023-03-03T06:43:23.150Z,5.77
2023-03-03T06:45:52.617Z,5.87
2023-03-03T06:48:21.013Z,5.67
2023-03-03T06:50:49.087Z,6.30
2023-03-03T06:53:19.748Z,5.40
2023-03-03T06:56:02.597Z,5.43
2023-03-03T06:58:31.294Z,5.43
2023-03-03T07:01:01.890Z,5.40
2023-03-03T07:03:34.285Z,5.70
2023-03-03T07:06:03.581Z,5.03
2023-03-03T07:08:33.169Z,5.27
2023-03-03T07:11:03.576Z,5.30
2023-03-03T07:13:32.369Z,5.43
2023-03-03T07:16:05.060Z,5.50
2023-03-03T07:18:38.262Z,6.23
2023-03-03T07:21:17.228Z,6.53
2023-03-03T07:23:46.098Z,6.30
2023-03-03T07:26:16.034Z,6.87
2023-03-03T07:28:45.004Z,6.20
2023-03-03T07:31:28.958Z,6.97
2023-03-03T07:33:58.581Z,5.93
2023-03-03T07:36:29.542Z,7.53
2023-03-03T07:39:00.207Z,6.97
2023-03-03T07:41:29.053Z,6.83
2023-03-03T07:44:01.485Z,6.60
2023-03-03T07:46:36.948Z,6.70
2023-03-03T07:49:19.150Z,6.70
2023-03-03T07:51:48.123Z,6.73
2023-03-03T07:54:25.316Z,6.50
2023-03-03T07:56:53.532Z,6.53
2023-03-03T07:59:23.293Z,6.40
2023-03-03T08:01:55.485Z,6.50
2023-03-03T08:04:26.196Z,7.10
2023-03-03T08:06:56.097Z,7.00
2023-03-03T08:09:32.336Z,6.83
2023-03-03T08:12:19.336Z,6.77
2023-03-03T08:14:48.020Z,6.90
2023-03-03T08:17:22.081Z,7.23
2023-03-03T08:19:50.961Z,7.10
2023-03-03T08:22:20.354Z,7.07
2023-03-03T08:24:48.111Z,7.60
2023-03-03T08:27:16.168Z,7.13
2023-03-03T08:29:43.915Z,7.70
2023-03-03T08:32:11.813Z,6.93
2023-03-03T08:34:40.893Z,7.17
2023-03-03T08:37:08.713Z,6.93
2023-03-03T08:39:36.496Z,6.33
2023-03-03T08:42:04.265Z,6.40
2023-03-03T08:44:31.986Z,6.50
2023-03-03T08:46:59.722Z,7.37
2023-03-03T08:49:27.405Z,6.53
2023-03-03T08:51:57.051Z,6.80
2023-03-03T08:54:24.871Z,7.60
2023-03-03T08:56:52.764Z,6.90
2023-03-03T08:59:22.217Z,6.27
2023-03-03T09:01:50.022Z,6.17
2023-03-03T09:04:17.839Z,6.47
2023-03-03T09:06:45.933Z,5.77
2023-03-03T09:09:15.276Z,6.30
2023-03-03T09:11:44.318Z,5.80
2023-03-03T09:14:13.442Z,6.00
2023-03-03T09:16:43.256Z,5.90
2023-03-03T09:19:20.248Z,5.17
2023-03-03T09:21:47.985Z,5.13
2023-03-03T09:24:26.313Z,5.20
2023-03-03T09:26:54.919Z,5.60
2023-03-03T09:29:27.637Z,5.10
2023-03-03T09:31:56.706Z,4.83
2023-03-03T09:34:27.599Z,4.67
2023-03-03T09:36:56.600Z,4.60
2023-03-03T09:39:26.892Z,4.63
2023-03-03T09:42:24.730Z,4.67
2023-03-03T09:45:13.542Z,4.77
2023-03-03T09:47:47.956Z,4.53
2023-03-03T09:50:31.454Z,5.30
2023-03-03T09:53:12.076Z,5.20
2023-03-03T09:55:46.313Z,4.63
2023-03-03T09:58:28.444Z,4.77
2023-03-03T10:01:03.461Z,4.70
2023-03-03T10:03:46.617Z,5.07
2023-03-03T10:06:23.026Z,4.57
2023-03-03T10:09:01.160Z,4.00
2023-03-03T10:11:33.958Z,4.40
2023-03-03T10:14:32.419Z,4.63
2023-03-03T10:17:23.871Z,4.07
2023-03-03T10:20:03.357Z,4.30
2023-03-03T10:22:36.239Z,4.73
2023-03-03T10:25:10.608Z,4.47
2023-03-03T10:27:53.523Z,4.93
2023-03-03T10:30:40.820Z,4.70
2023-03-03T10:33:13.589Z,4.63
2023-03-03T10:36:05.954Z,5.13
2023-03-03T10:38:45.100Z,5.20
2023-03-03T10:41:29.980Z,4.90
2023-03-03T10:44:16.963Z,4.90
2023-03-03T10:46:54.667Z,4.80
2023-03-03T10:49:31.869Z,4.67
2023-03-03T10:52:19.781Z,4.97
2023-03-03T10:55:00.885Z,4.97
2023-03-03T10:57:35.558Z,5.30
2023-03-03T11:00:20.972Z,5.20
2023-03-03T11:03:17.123Z,5.40
2023-03-03T11:05:48.440Z,5.03
2023-03-03T11:08:19.102Z,5.63
2023-03-03T11:19:13.553Z,4.70
2023-03-03T11:21:46.910Z,5.20
2023-03-03T11:24:29.425Z,5.23
2023-03-03T11:27:29.465Z,4.73
2023-03-03T11:30:07.956Z,4.73
2023-03-03T11:32:42.784Z,4.73
2023-03-03T11:35:24.709Z,4.97
2023-03-03T11:38:00.151Z,4.60
2023-03-03T11:40:30.006Z,5.30
2023-03-03T11:43:04.091Z,4.83
2023-03-03T11:45:36.872Z,5.50
2023-03-03T11:48:12.746Z,5.40
2023-03-03T11:50:45.664Z,5.00
2023-03-03T11:53:26.015Z,5.40
2023-03-03T11:55:57.983Z,5.17
2023-03-03T11:58:29.166Z,4.90
2023-03-03T12:01:00.727Z,5.53
2023-03-03T12:03:31.868Z,5.80
2023-03-03T12:06:12.531Z,5.30
2023-03-03T12:09:03.223Z,5.67
2023-03-03T12:11:36.487Z,6.20
2023-03-03T12:14:09.144Z,5.70
2023-03-03T12:16:43.057Z,6.50
2023-03-03T12:19:21.621Z,5.53
2023-03-03T12:22:04.215Z,6.13
2023-03-03T12:24:38.326Z,6.10
2023-03-03T12:27:16.581Z,6.60
2023-03-03T12:29:53.659Z,6.33
2023-03-03T12:32:30.525Z,6.10
2023-03-03T12:35:05.294Z,6.23
2023-03-03T12:37:49.212Z,5.77
2023-03-03T12:40:20.360Z,6.17
2023-03-03T12:43:01.761Z,5.43
2023-03-03T12:45:38.374Z,5.67
2023-03-03T12:48:10.285Z,5.70
2023-03-03T12:50:47.420Z,5.40
2023-03-03T12:53:29.328Z,5.60
2023-03-03T12:56:00.349Z,5.33
2023-03-03T12:58:37.548Z,5.33
2023-03-03T13:01:18.260Z,5.37
2023-03-03T13:03:56.137Z,5.90
2023-03-03T13:06:30.036Z,6.17
2023-03-03T13:09:18.696Z,5.53
2023-03-03T13:12:18.908Z,5.47
2023-03-03T13:14:50.440Z,5.13
2023-03-03T13:17:21.993Z,5.50
2023-03-03T13:19:54.094Z,5.23
2023-03-03T13:22:37.987Z,4.33
2023-03-03T13:25:15.565Z,5.17
2023-03-03T13:27:45.644Z,5.00
2023-03-03T13:30:18.735Z,5.00
2023-03-03T13:32:51.129Z,4.90
2023-03-03T13:35:26.930Z,5.10
2023-03-03T13:37:56.609Z,4.27
2023-03-03T13:40:27.767Z,4.07
2023-03-03T13:42:59.371Z,3.70
2023-03-03T13:45:32.308Z,4.00
2023-03-03T13:48:05.583Z,3.43
2023-03-03T13:50:37.609Z,3.40
2023-03-03T13:53:21.149Z,2.90
2023-03-03T14:13:04.514Z,3.20
2023-03-03T14:15:36.775Z,3.00
2023-03-03T14:18:22.536Z,2.97
2023-03-03T14:20:52.984Z,2.70
2023-03-03T14:23:23.969Z,2.60
2023-03-03T14:25:58.434Z,2.60
2023-03-03T14:28:29.245Z,2.87
2023-03-03T14:30:58.341Z,2.77
2023-03-03T14:33:32.700Z,2.80
2023-03-03T14:36:18.468Z,3.17
2023-03-03T14:38:48.706Z,2.77
2023-03-03T14:41:38.125Z,2.63
2023-03-03T14:44:29.134Z,3.03
2023-03-03T14:47:24.091Z,3.00
2023-03-03T14:49:52.376Z,2.63
2023-03-03T14:52:25.847Z,2.70
2023-03-03T14:54:54.729Z,3.10
2023-03-03T14:57:30.285Z,3.03
2023-03-03T15:00:02.871Z,3.20
2023-03-03T15:02:33.402Z,3.17
2023-03-03T15:05:18.951Z,3.13
2023-03-03T15:07:48.710Z,3.47
2023-03-03T15:10:28.412Z,3.40
2023-03-03T15:12:56.227Z,3.20
2023-03-03T15:15:26.852Z,3.50
2023-03-03T15:18:02.600Z,3.17
2023-03-03T15:20:38.667Z,3.47
2023-03-03T15:23:16.501Z,3.10
2023-03-03T15:25:53.418Z,3.40
2023-03-03T15:28:33.278Z,3.27
2023-03-03T15:31:05.566Z,3.50
2023-03-03T15:33:36.684Z,3.50
2023-03-03T15:36:10.048Z,3.60
2023-03-03T15:38:45.048Z,3.53
2023-03-03T15:41:28.200Z,3.23
2023-03-03T15:44:12.976Z,3.40
2023-03-03T15:46:55.268Z,2.83
2023-03-03T15:49:42.566Z,3.23
2023-03-03T15:52:23.464Z,3.40
2023-03-03T15:54:59.343Z,3.27
2023-03-03T15:57:37.854Z,2.80
2023-03-03T16:00:22.265Z,3.17
2023-03-03T16:02:58.790Z,3.00
2023-03-03T16:05:29.662Z,2.70
2023-03-03T16:08:04.736Z,2.70
2023-03-03T16:10:38.686Z,3.17
2023-03-03T16:13:22.928Z,3.60
2023-03-03T16:15:59.838Z,3.70
2023-03-03T16:18:37.340Z,4.03
2023-03-03T16:21:15.977Z,3.67
2023-03-03T16:23:48.473Z,3.90
2023-03-03T16:26:23.348Z,4.23
2023-03-03T16:29:02.845Z,4.20
2023-03-03T16:31:35.850Z,3.60
2023-03-03T16:34:11.315Z,4.50
2023-03-03T16:36:50.330Z,3.70
2023-03-03T16:39:23.442Z,4.07
2023-03-03T16:41:57.185Z,4.10
2023-03-03T16:44:36.934Z,4.03
2023-03-03T16:47:17.137Z,4.17
2023-03-03T16:49:54.489Z,4.00
2023-03-03T16:52:26.912Z,4.47
2023-03-03T16:54:57.548Z,4.00
2023-03-03T16:57:30.785Z,4.10
2023-03-03T17:00:05.960Z,4.43
2023-03-03T17:02:46.414Z,4.23
2023-03-03T17:05:21.896Z,4.90
2023-03-03T17:08:01.846Z,5.00
2023-03-03T17:10:33.260Z,5.93
2023-03-03T17:23:52.812Z,4.30
2023-03-03T17:26:41.992Z,4.37
2023-03-03T17:29:24.462Z,4.53
2023-03-03T17:31:59.556Z,4.00
2023-03-03T17:34:37.666Z,4.63
2023-03-03T17:37:16.729Z,4.80
2023-03-03T17:40:18.462Z,4.70
2023-03-03T17:42:50.448Z,4.30
2023-03-03T17:45:19.084Z,4.13
2023-03-03T17:47:52.239Z,4.47
2023-03-03T17:50:28.822Z,4.50
2023-03-03T17:53:41.061Z,4.20
2023-03-03T17:56:20.241Z,4.03
2023-03-03T17:59:06.139Z,4.10
2023-03-03T18:01:46.362Z,4.10
2023-03-03T18:04:36.438Z,5.00
2023-03-03T18:07:23.879Z,5.63
2023-03-03T18:10:28.676Z,6.10
2023-03-03T18:13:03.992Z,6.90
2023-03-03T18:15:39.096Z,6.70
2023-03-03T18:18:17.102Z,6.50
2023-03-03T18:21:06.248Z,6.40
2023-03-03T18:23:41.854Z,5.83
2023-03-03T18:26:32.244Z,6.63
2023-03-03T18:29:12.489Z,6.40
2023-03-03T18:32:01.531Z,6.23
2023-03-03T18:34:34.850Z,6.27
2023-03-03T18:37:04.237Z,6.60
2023-03-03T18:39:41.084Z,6.17
2023-03-03T18:42:32.221Z,6.50
2023-03-03T18:45:11.940Z,5.67
2023-03-03T18:48:01.569Z,6.07
2023-03-03T18:50:33.652Z,5.97
2023-03-03T18:53:20.753Z,5.90
2023-03-03T18:55:49.639Z,5.87
2023-03-03T18:58:40.839Z,6.87
2023-03-03T19:01:39.146Z,7.30
2023-03-03T19:04:25.201Z,6.10
2023-03-03T19:07:12.615Z,6.00
2023-03-03T19:09:52.554Z,6.60
2023-03-03T19:12:20.766Z,6.30
2023-03-03T19:14:49.459Z,7.47
2023-03-03T19:17:44.866Z,7.03
2023-03-03T19:20:18.265Z,7.90
2023-03-03T19:22:51.215Z,7.60
2023-03-03T19:25:22.852Z,7.33
2023-03-03T19:28:00.175Z,6.80
2023-03-03T19:30:51.614Z,6.70
2023-03-03T19:33:40.761Z,6.90
2023-03-03T19:36:31.722Z,7.13
2023-03-03T19:39:07.223Z,6.03
2023-03-03T19:41:47.851Z,6.60
2023-03-03T19:44:27.784Z,6.50
2023-03-03T19:47:00.324Z,6.10
2023-03-03T19:49:40.340Z,5.60
2023-03-03T19:52:14.570Z,6.17
2023-03-03T19:54:52.730Z,6.57
2023-03-03T19:57:36.526Z,6.27
2023-03-03T20:00:08.278Z,6.70
2023-03-03T20:02:45.685Z,6.60
2023-03-03T20:05:22.131Z,6.50
2023-03-03T20:07:57.010Z,6.50
2023-03-03T20:10:34.967Z,6.50
2023-03-03T20:13:11.882Z,6.13
2023-03-03T20:15:45.968Z,6.37
2023-03-03T20:18:42.220Z,7.33
2023-03-03T20:21:17.535Z,6.57
2023-03-03T20:23:58.073Z,7.00
2023-03-03T20:26:28.716Z,7.10
2023-03-03T20:29:32.918Z,6.20
2023-03-03T20:32:06.273Z,6.90
2023-03-03T20:34:42.140Z,6.93
2023-03-03T20:37:12.609Z,6.97
2023-03-03T20:39:53.854Z,7.20
2023-03-03T20:42:33.205Z,6.37
2023-03-03T20:45:10.833Z,6.80
2023-03-03T20:47:46.673Z,6.83
2023-03-03T20:50:25.425Z,6.40
2023-03-03T20:53:02.503Z,6.83
2023-03-03T20:55:40.789Z,6.70
2023-03-03T20:58:13.238Z,6.83
2023-03-03T21:00:47.359Z,7.23
2023-03-03T21:03:18.546Z,7.60
2023-03-03T21:05:58.756Z,6.53
2023-03-03T21:08:49.733Z,6.60
2023-03-03T21:11:21.034Z,6.67
2023-03-03T21:13:51.679Z,6.53
2023-03-03T21:16:33.490Z,6.67
2023-03-03T21:19:03.156Z,6.77
2023-03-03T21:21:32.298Z,6.93
2023-03-03T21:24:00.198Z,7.70
2023-03-03T21:26:51.393Z,6.43
2023-03-03T21:29:27.629Z,6.07
2023-03-03T21:31:56.726Z,6.40
2023-03-03T21:34:27.442Z,6.43
2023-03-03T21:36:59.461Z,7.83
2023-03-03T21:39:30.093Z,6.77
2023-03-03T21:42:02.106Z,7.90
2023-03-03T21:44:32.087Z,8.07
2023-03-03T21:46:59.971Z,9.20
2023-03-03T21:49:27.777Z,10.03
2023-03-03T21:51:56.074Z,10.10
2023-03-03T21:54:24.135Z,10.70
2023-03-03T21:56:52.077Z,12.10
2023-03-03T21:59:21.516Z,12.33
2023-03-03T22:01:49.252Z,11.83
2023-03-03T22:04:17.470Z,13.23
2023-03-03T22:06:45.279Z,11.93
2023-03-03T22:09:13.075Z,11.57
2023-03-03T22:11:40.896Z,11.00
2023-03-03T22:14:10.054Z,11.03
2023-03-03T22:16:39.226Z,11.20
2023-03-03T22:19:09.112Z,10.83
2023-03-03T22:21:37.847Z,11.33
2023-03-03T22:24:06.371Z,10.93
2023-03-03T22:26:34.601Z,10.87
2023-03-03T22:29:02.468Z,10.80
2023-03-03T22:31:30.326Z,10.73
2023-03-03T22:33:59.526Z,10.50
2023-03-03T22:36:27.390Z,10.20
2023-03-03T22:38:55.270Z,10.67
2023-03-03T22:41:23.089Z,9.93
2023-03-03T22:43:50.999Z,10.17
2023-03-03T22:46:18.802Z,10.00
2023-03-03T22:48:46.634Z,10.90
2023-03-03T22:51:15.813Z,10.93
2023-03-03T22:53:43.627Z,11.13
2023-03-03T22:56:11.445Z,11.40
2023-03-03T22:58:39.456Z,12.87
2023-03-03T23:01:07.282Z,11.73
2023-03-03T23:03:35.271Z,11.80
2023-03-03T23:06:03.033Z,12.13
2023-03-03T23:08:32.566Z,12.70
2023-03-03T23:11:00.381Z,13.73
2023-03-03T23:13:28.467Z,14.03
2023-03-03T23:15:59.959Z,13.87
2023-03-03T23:18:28.426Z,14.00
2023-03-03T23:20:56.641Z,13.53
2023-03-03T23:23:24.768Z,13.10
2023-03-03T23:25:54.030Z,13.30
2023-03-03T23:28:21.748Z,14.10
2023-03-03T23:30:51.166Z,12.47
2023-03-03T23:33:20.023Z,12.50
2023-03-03T23:35:49.757Z,12.63
2023-03-03T23:38:17.895Z,12.87
2023-03-03T23:40:46.666Z,13.03
2023-03-03T23:43:16.002Z,12.30
2023-03-03T23:45:43.958Z,13.27
2023-03-03T23:48:11.704Z,12.37
2023-03-03T23:50:39.554Z,12.27
2023-03-03T23:53:08.148Z,12.90
2023-03-03T23:55:37.691Z,12.37
2023-03-03T23:58:05.708Z,11.87
